createdAt,value
2018-08-04T00:00:13.170Z,60192.62
2018-08-04T00:02:41.350Z,60202.79
2018-08-04T00:05:10.642Z,60219.04
2018-08-04T00:07:39.534Z,60210.91
2018-08-04T00:10:15.975Z,60228.19
2018-08-04T00:12:44.476Z,60206.85
2018-08-04T00:15:12.719Z,60212.95
2018-08-04T00:17:41.035Z,60202.79
2018-08-04T00:20:09.235Z,60187.54
2018-08-04T00:22:37.434Z,60197.70
2018-08-04T00:25:05.602Z,60199.74
2018-08-04T00:27:33.847Z,60196.69
2018-08-04T00:30:02.235Z,60204.82
2018-08-04T00:32:30.394Z,60210.91
2018-08-04T00:34:58.588Z,60204.82
2018-08-04T00:37:26.787Z,60189.57
2018-08-04T00:39:55.219Z,60214.98
2018-08-04T00:42:23.386Z,60211.93
2018-08-04T00:44:51.587Z,60218.03
2018-08-04T00:47:19.768Z,60234.29
2018-08-04T00:49:47.953Z,60218.03
2018-08-04T00:52:16.239Z,60203.80
2018-08-04T00:54:44.422Z,60206.85
2018-08-04T00:57:12.614Z,60196.69
2018-08-04T00:59:40.786Z,60217.01
2018-08-04T01:02:09.006Z,60199.74
2018-08-04T01:04:37.183Z,60229.20
2018-08-04T01:07:05.390Z,60202.79
2018-08-04T01:09:33.579Z,60218.03
2018-08-04T01:12:01.769Z,60234.29
2018-08-04T01:14:29.942Z,60225.14
2018-08-04T01:16:58.136Z,60205.83
2018-08-04T01:19:26.323Z,60211.93
2018-08-04T01:21:54.543Z,60215.99
2018-08-04T01:24:22.718Z,60202.79
2018-08-04T01:26:50.914Z,60220.06
2018-08-04T01:29:19.086Z,60224.12
2018-08-04T01:31:47.514Z,60213.96
2018-08-04T01:34:15.708Z,60215.99
2018-08-04T01:36:43.891Z,60219.04
2018-08-04T01:39:12.131Z,60220.06
2018-08-04T01:41:40.374Z,60217.01
2018-08-04T01:44:08.552Z,60230.22
2018-08-04T01:46:36.732Z,60236.32
2018-08-04T01:49:04.921Z,60222.09
2018-08-04T01:51:33.096Z,60205.83
2018-08-04T01:54:01.288Z,60214.98
2018-08-04T01:56:29.535Z,60234.29
2018-08-04T01:58:57.721Z,60217.01
2018-08-04T02:01:25.910Z,60217.01
2018-08-04T02:03:54.106Z,60220.06
2018-08-04T02:06:22.295Z,60250.54
2018-08-04T02:08:50.474Z,60219.04
2018-08-04T02:11:18.655Z,60224.12
2018-08-04T02:13:46.846Z,60220.06
2018-08-04T02:16:15.036Z,60223.11
2018-08-04T02:18:43.220Z,60215.99
2018-08-04T02:21:11.399Z,60251.56
2018-08-04T02:23:39.570Z,60214.98
2018-08-04T02:26:07.746Z,60241.40
2018-08-04T02:28:35.921Z,60230.22
2018-08-04T02:31:04.100Z,60218.03
2018-08-04T02:33:32.279Z,60211.93
2018-08-04T02:36:00.495Z,60223.11
2018-08-04T02:38:28.637Z,60240.38
2018-08-04T02:40:56.866Z,60237.33
2018-08-04T02:43:25.043Z,60218.03
2018-08-04T02:45:53.770Z,60234.29
2018-08-04T02:48:21.955Z,60207.86
2018-08-04T02:50:50.142Z,60233.27
2018-08-04T02:53:18.334Z,60224.12
2018-08-04T02:55:46.522Z,60225.14
2018-08-04T02:58:14.716Z,60246.48
2018-08-04T03:00:42.903Z,60231.24
2018-08-04T03:03:11.085Z,60231.24
2018-08-04T03:05:39.263Z,60224.12
2018-08-04T03:08:07.663Z,60235.30
2018-08-04T03:10:35.895Z,60249.53
2018-08-04T03:13:04.102Z,60237.33
2018-08-04T03:15:32.303Z,60230.22
2018-08-04T03:18:00.501Z,60241.40
2018-08-04T03:20:28.671Z,60227.17
2018-08-04T03:22:56.898Z,60245.46
2018-08-04T03:25:25.067Z,60239.36
2018-08-04T03:27:53.247Z,60231.24
2018-08-04T03:30:21.423Z,60230.22
2018-08-04T03:32:49.602Z,60230.22
2018-08-04T03:35:17.826Z,60238.35
2018-08-04T03:37:45.998Z,60245.46
2018-08-04T03:40:14.183Z,60254.61
2018-08-04T03:42:42.363Z,60247.49
2018-08-04T03:45:10.543Z,60232.25
2018-08-04T03:47:38.718Z,60232.25
2018-08-04T03:50:07.186Z,60246.48
2018-08-04T03:52:35.435Z,60242.41
2018-08-04T03:55:03.631Z,60253.59
2018-08-04T03:57:31.845Z,60249.53
2018-08-04T04:00:00.051Z,60240.38
2018-08-04T04:02:28.227Z,60250.54
2018-08-04T04:04:56.410Z,60235.30
2018-08-04T04:07:24.585Z,60247.49
2018-08-04T04:09:52.759Z,60246.48
2018-08-04T04:12:20.931Z,60244.45
2018-08-04T04:14:49.199Z,60242.41
2018-08-04T04:17:17.406Z,60257.66
2018-08-04T04:19:45.595Z,60226.16
2018-08-04T04:22:13.815Z,60240.38
2018-08-04T04:24:41.987Z,60227.17
2018-08-04T04:27:10.172Z,60239.36
2018-08-04T04:29:38.355Z,60240.38
2018-08-04T04:32:06.834Z,60247.49
2018-08-04T04:34:35.153Z,60238.35
2018-08-04T04:37:03.323Z,60231.24
2018-08-04T04:39:31.518Z,60235.30
2018-08-04T04:41:59.690Z,60227.17
2018-08-04T04:44:27.859Z,60243.43
2018-08-04T04:46:56.036Z,60229.20
2018-08-04T04:49:24.202Z,60224.12
2018-08-04T04:51:52.381Z,60212.95
2018-08-04T04:54:20.650Z,60228.19
2018-08-04T04:56:48.853Z,60233.27
2018-08-04T04:59:17.027Z,60256.64
2018-08-04T05:01:45.258Z,60242.41
2018-08-04T05:04:13.452Z,60232.25
2018-08-04T05:06:41.624Z,60208.88
2018-08-04T05:09:09.915Z,60243.43
2018-08-04T05:11:38.111Z,60233.27
2018-08-04T05:14:06.310Z,60240.38
2018-08-04T05:16:34.502Z,60232.25
2018-08-04T05:19:02.691Z,60214.98
2018-08-04T05:21:30.880Z,60249.53
2018-08-04T05:23:59.058Z,60220.06
2018-08-04T05:26:27.249Z,60240.38
2018-08-04T05:28:55.428Z,60236.32
2018-08-04T05:31:23.621Z,60217.01
2018-08-04T05:33:52.218Z,60231.24
2018-08-04T05:36:20.399Z,60235.30
2018-08-04T05:38:48.578Z,60235.30
2018-08-04T05:41:16.758Z,60212.95
2018-08-04T05:43:44.971Z,60228.19
2018-08-04T05:46:13.142Z,60204.82
2018-08-04T05:48:41.414Z,60226.16
2018-08-04T05:51:10.478Z,60230.22
2018-08-04T05:53:38.694Z,60214.98
2018-08-04T05:56:07.814Z,60220.06
2018-08-04T05:58:36.177Z,60214.98
2018-08-04T06:01:04.462Z,60225.14
2018-08-04T06:03:32.639Z,60231.24
2018-08-04T06:06:00.866Z,60239.36
2018-08-04T06:08:29.042Z,60234.29
2018-08-04T06:10:57.225Z,60207.86
2018-08-04T06:13:25.427Z,60221.07
2018-08-04T06:15:53.601Z,60206.85
2018-08-04T06:18:21.854Z,60227.17
2018-08-04T06:20:50.161Z,60212.95
2018-08-04T06:23:18.396Z,60223.11
2018-08-04T06:25:46.726Z,60229.20
2018-08-04T06:28:14.906Z,60227.17
2018-08-04T06:30:43.202Z,60226.16
2018-08-04T06:33:11.437Z,60231.24
2018-08-04T06:35:39.706Z,60243.43
2018-08-04T06:38:07.899Z,60213.96
2018-08-04T06:40:36.091Z,60220.06
2018-08-04T06:43:04.286Z,60214.98
2018-08-04T06:45:32.483Z,60198.72
2018-08-04T06:48:00.658Z,60219.04
2018-08-04T06:50:28.859Z,60213.96
2018-08-04T06:52:57.112Z,60198.72
2018-08-04T06:55:25.252Z,60225.14
2018-08-04T06:57:53.429Z,60204.82
2018-08-04T07:00:21.606Z,60215.99
2018-08-04T07:02:49.798Z,60191.61
2018-08-04T07:05:17.970Z,60201.77
2018-08-04T07:07:46.910Z,60217.01
2018-08-04T07:10:15.081Z,60206.85
2018-08-04T07:12:43.418Z,60196.69
2018-08-04T07:15:11.599Z,60196.69
2018-08-04T07:17:39.783Z,60214.98
2018-08-04T07:20:07.991Z,60204.82
2018-08-04T07:22:36.227Z,60196.69
2018-08-04T07:25:04.554Z,60195.67
2018-08-04T07:27:32.735Z,60201.77
2018-08-04T07:30:00.917Z,60224.12
2018-08-04T07:32:29.131Z,60199.74
2018-08-04T07:34:57.314Z,60205.83
2018-08-04T07:37:25.502Z,60223.11
2018-08-04T07:39:53.701Z,60212.95
2018-08-04T07:42:21.870Z,60199.74
2018-08-04T07:44:50.088Z,60199.74
2018-08-04T07:47:18.326Z,60206.85
2018-08-04T07:49:46.486Z,60196.69
2018-08-04T07:52:14.676Z,60199.74
2018-08-04T07:54:43.007Z,60198.72
2018-08-04T07:57:11.174Z,60184.49
2018-08-04T07:59:39.343Z,60200.75
2018-08-04T08:02:07.574Z,60198.72
2018-08-04T08:04:35.747Z,60196.69
2018-08-04T08:07:03.943Z,60185.51
2018-08-04T08:09:32.110Z,60191.61
2018-08-04T08:12:00.316Z,60217.01
2018-08-04T08:14:28.513Z,60200.75
2018-08-04T08:16:56.718Z,60193.64
2018-08-04T08:19:24.979Z,60198.72
2018-08-04T08:21:53.172Z,60191.61
2018-08-04T08:24:21.397Z,60194.66
2018-08-04T08:26:49.611Z,60199.74
2018-08-04T08:29:17.831Z,60183.48
2018-08-04T08:31:46.045Z,60199.74
2018-08-04T08:34:14.256Z,60194.66
2018-08-04T08:36:42.534Z,60177.38
2018-08-04T08:39:10.752Z,60177.38
2018-08-04T08:41:38.994Z,60197.70
2018-08-04T08:44:07.218Z,60182.46
2018-08-04T08:46:35.445Z,60180.43
2018-08-04T08:49:03.780Z,60172.30
2018-08-04T08:51:31.980Z,60163.16
2018-08-04T08:54:00.288Z,60155.03
2018-08-04T08:56:28.365Z,60164.17
2018-08-04T08:58:56.550Z,60154.01
2018-08-04T09:01:24.861Z,60142.83
2018-08-04T09:03:53.435Z,60166.20
2018-08-04T09:06:21.633Z,60156.04
2018-08-04T09:08:49.807Z,60145.88
2018-08-04T09:11:18.007Z,60155.03
2018-08-04T09:13:46.494Z,60147.91
2018-08-04T09:16:14.695Z,60155.03
2018-08-04T09:18:43.011Z,60151.98
2018-08-04T09:21:11.275Z,60127.59
2018-08-04T09:23:39.503Z,60135.72
2018-08-04T09:26:07.747Z,60140.80
2018-08-04T09:28:35.942Z,60126.57
2018-08-04T09:31:04.124Z,60147.91
2018-08-04T09:33:32.416Z,60141.82
2018-08-04T09:36:00.628Z,60157.06
2018-08-04T09:38:28.905Z,60150.96
2018-08-04T09:40:57.209Z,60138.77
2018-08-04T09:43:25.408Z,60143.85
2018-08-04T09:45:53.638Z,60138.77
2018-08-04T09:48:21.858Z,60130.64
2018-08-04T09:50:50.079Z,60119.46
2018-08-04T09:53:18.303Z,60094.06
2018-08-04T09:55:46.568Z,60115.40
2018-08-04T09:58:14.718Z,60110.32
2018-08-04T10:00:48.240Z,60113.37
2018-08-04T10:03:16.427Z,60099.14
2018-08-04T10:05:44.719Z,60104.22
2018-08-04T10:08:12.925Z,60100.16
2018-08-04T10:10:41.146Z,60091.01
2018-08-04T10:13:09.342Z,60087.96
2018-08-04T10:15:37.528Z,60087.96
2018-08-04T10:18:05.982Z,60099.14
2018-08-04T10:20:34.227Z,60074.75
2018-08-04T10:23:02.410Z,60096.09
2018-08-04T10:25:30.582Z,60080.85
2018-08-04T10:27:58.830Z,60084.91
2018-08-04T10:30:27.035Z,60077.80
2018-08-04T10:32:55.269Z,60068.66
2018-08-04T10:35:23.483Z,60064.59
2018-08-04T10:37:51.723Z,60066.62
2018-08-04T10:40:19.960Z,60061.54
2018-08-04T10:42:48.242Z,60067.64
2018-08-04T10:45:16.535Z,60055.45
2018-08-04T10:47:44.886Z,60065.61
2018-08-04T10:50:13.167Z,60066.62
2018-08-04T10:52:41.467Z,60058.50
2018-08-04T10:55:09.774Z,60054.43
2018-08-04T10:57:38.035Z,60049.35
2018-08-04T11:00:08.023Z,60056.46
2018-08-04T11:02:36.282Z,60056.46
2018-08-04T11:05:04.928Z,60054.43
2018-08-04T11:07:33.110Z,60063.57
2018-08-04T11:10:01.323Z,60062.56
2018-08-04T11:12:30.677Z,60051.38
2018-08-04T11:14:58.830Z,60036.14
2018-08-04T11:17:27.190Z,60038.18
2018-08-04T11:19:56.353Z,60048.34
2018-08-04T11:22:24.569Z,60060.53
2018-08-04T11:24:52.934Z,60066.62
2018-08-04T11:27:21.159Z,60035.12
2018-08-04T11:29:49.378Z,60037.16
2018-08-04T11:32:17.593Z,60049.35
2018-08-04T11:34:45.975Z,60042.24
2018-08-04T11:37:14.192Z,60054.43
2018-08-04T11:39:42.416Z,60049.35
2018-08-04T11:42:10.702Z,60070.69
2018-08-04T11:44:39.176Z,60041.22
2018-08-04T11:47:07.463Z,60040.21
2018-08-04T11:49:35.750Z,60045.29
2018-08-04T11:52:04.046Z,60056.46
2018-08-04T11:54:32.249Z,60069.67
2018-08-04T11:57:00.498Z,60073.74
2018-08-04T11:59:28.766Z,60058.50
2018-08-04T12:01:57.038Z,60051.38
2018-08-04T12:04:25.225Z,60039.19
2018-08-04T12:06:53.566Z,60030.05
2018-08-04T12:09:21.842Z,60044.27
2018-08-04T12:11:50.063Z,60038.18
2018-08-04T12:14:18.283Z,60048.34
2018-08-04T12:16:46.577Z,60066.62
2018-08-04T12:19:14.895Z,60057.48
2018-08-04T12:21:43.157Z,60047.32
2018-08-04T12:24:11.470Z,60046.30
2018-08-04T12:26:39.755Z,60056.46
2018-08-04T12:29:08.031Z,60057.48
2018-08-04T12:31:36.340Z,60039.19
2018-08-04T12:34:04.650Z,60053.42
2018-08-04T12:36:32.890Z,60048.34
2018-08-04T12:39:01.158Z,60044.27
2018-08-04T12:41:29.444Z,60044.27
2018-08-04T12:43:57.654Z,60049.35
2018-08-04T12:46:25.892Z,60052.40
2018-08-04T12:48:54.159Z,60054.43
2018-08-04T12:51:22.370Z,60036.14
2018-08-04T12:53:50.575Z,60058.50
2018-08-04T12:56:18.774Z,60044.27
2018-08-04T12:58:47.022Z,60062.56
2018-08-04T13:01:15.314Z,60048.34
2018-08-04T13:03:43.546Z,60035.12
2018-08-04T13:06:11.791Z,60042.24
2018-08-04T13:08:39.977Z,60041.22
2018-08-04T13:11:08.194Z,60050.37
2018-08-04T13:13:36.522Z,60065.61
2018-08-04T13:16:04.797Z,60048.34
2018-08-04T13:18:33.026Z,60061.54
2018-08-04T13:21:01.261Z,60065.61
2018-08-04T13:23:29.568Z,60059.51
2018-08-04T13:25:57.860Z,60058.50
2018-08-04T13:28:26.058Z,60047.32
2018-08-04T13:30:54.339Z,60052.40
2018-08-04T13:33:22.631Z,60036.14
2018-08-04T13:35:50.842Z,60048.34
2018-08-04T13:38:19.132Z,60064.59
2018-08-04T13:40:47.410Z,60067.64
2018-08-04T13:43:15.719Z,60050.37
2018-08-04T13:45:44.009Z,60069.67
2018-08-04T13:48:12.206Z,60061.54
2018-08-04T13:50:40.438Z,60063.57
2018-08-04T13:53:08.686Z,60054.43
2018-08-04T13:55:36.930Z,60063.57
2018-08-04T13:58:05.562Z,60047.32
2018-08-04T14:00:33.793Z,60046.30
2018-08-04T14:03:01.975Z,60053.42
2018-08-04T14:05:30.251Z,60054.43
2018-08-04T14:07:58.508Z,60061.54
2018-08-04T14:10:26.718Z,60068.66
2018-08-04T14:12:54.934Z,60075.77
2018-08-04T14:15:23.212Z,60057.48
2018-08-04T14:17:51.522Z,60071.71
2018-08-04T14:20:19.759Z,60055.45
2018-08-04T14:22:48.053Z,60048.34
2018-08-04T14:25:16.241Z,60052.40
2018-08-04T14:27:44.472Z,60050.37
2018-08-04T14:30:12.731Z,60053.42
2018-08-04T14:32:41.049Z,60073.74
2018-08-04T14:35:09.324Z,60057.48
2018-08-04T14:37:37.567Z,60062.56
2018-08-04T14:40:05.810Z,60070.69
2018-08-04T14:42:34.034Z,60066.62
2018-08-04T14:45:02.260Z,60068.66
2018-08-04T14:47:30.521Z,60080.85
2018-08-04T14:49:58.754Z,60074.75
2018-08-04T14:52:26.993Z,60069.67
2018-08-04T14:54:55.314Z,60066.62
2018-08-04T14:57:23.490Z,60097.11
2018-08-04T14:59:51.746Z,60071.71
2018-08-04T15:02:19.934Z,60084.91
2018-08-04T15:04:48.259Z,60087.96
2018-08-04T15:07:16.431Z,60080.85
2018-08-04T15:09:44.612Z,60079.84
2018-08-04T15:12:12.822Z,60077.80
2018-08-04T15:14:41.093Z,60087.96
2018-08-04T15:17:09.344Z,60071.71
2018-08-04T15:19:37.646Z,60086.95
2018-08-04T15:22:05.973Z,60081.87
2018-08-04T15:24:34.211Z,60087.96
2018-08-04T15:27:02.466Z,60069.67
2018-08-04T15:29:30.724Z,60069.67
2018-08-04T15:31:59.018Z,60079.84
2018-08-04T15:34:27.264Z,60069.67
2018-08-04T15:36:55.479Z,60082.88
2018-08-04T15:39:23.670Z,60075.77
2018-08-04T15:41:52.004Z,60093.04
2018-08-04T15:44:20.242Z,60083.90
2018-08-04T15:46:48.453Z,60073.74
2018-08-04T15:49:16.651Z,60091.01
2018-08-04T15:51:44.859Z,60083.90
2018-08-04T15:54:13.062Z,60083.90
2018-08-04T15:56:41.311Z,60066.62
2018-08-04T15:59:09.580Z,60090.00
2018-08-04T16:01:37.832Z,60100.16
2018-08-04T16:04:06.118Z,60082.88
2018-08-04T16:06:34.403Z,60090.00
2018-08-04T16:09:02.654Z,60080.85
2018-08-04T16:11:30.980Z,60090.00
2018-08-04T16:13:59.227Z,60100.16
2018-08-04T16:16:27.484Z,60096.09
2018-08-04T16:18:55.833Z,60097.11
2018-08-04T16:21:24.056Z,60087.96
2018-08-04T16:23:52.395Z,60091.01
2018-08-04T16:26:20.618Z,60100.16
2018-08-04T16:28:48.895Z,60096.09
2018-08-04T16:31:17.082Z,60085.93
2018-08-04T16:33:45.324Z,60097.11
2018-08-04T16:36:13.513Z,60098.12
2018-08-04T16:38:41.779Z,60086.95
2018-08-04T16:41:10.002Z,60088.98
2018-08-04T16:43:38.286Z,60114.38
2018-08-04T16:46:06.882Z,60105.24
2018-08-04T16:48:35.075Z,60094.06
2018-08-04T16:51:03.340Z,60109.30
2018-08-04T16:53:31.683Z,60103.20
2018-08-04T16:55:59.855Z,60110.32
2018-08-04T16:58:28.011Z,60104.22
2018-08-04T17:00:56.250Z,60095.08
2018-08-04T17:03:24.545Z,60104.22
2018-08-04T17:05:53.034Z,60101.17
2018-08-04T17:08:21.333Z,60111.33
2018-08-04T17:10:49.557Z,60115.40
2018-08-04T17:13:17.842Z,60098.12
2018-08-04T17:15:46.120Z,60114.38
2018-08-04T17:18:14.508Z,60107.27
2018-08-04T17:20:42.626Z,60098.12
2018-08-04T17:23:10.798Z,60100.16
2018-08-04T17:25:39.140Z,60112.35
2018-08-04T17:28:07.448Z,60108.29
2018-08-04T17:30:35.643Z,60121.50
2018-08-04T17:33:03.838Z,60117.43
2018-08-04T17:35:32.111Z,60095.08
2018-08-04T17:38:00.302Z,60118.45
2018-08-04T17:40:28.596Z,60123.53
2018-08-04T17:42:56.850Z,60118.45
2018-08-04T17:45:25.131Z,60112.35
2018-08-04T17:47:53.420Z,60100.16
2018-08-04T17:50:21.833Z,60127.59
2018-08-04T17:52:50.549Z,60118.45
2018-08-04T17:55:18.830Z,60124.54
2018-08-04T17:57:47.041Z,60127.59
2018-08-04T18:00:15.395Z,60122.51
2018-08-04T18:02:43.590Z,60118.45
2018-08-04T18:05:11.872Z,60124.54
2018-08-04T18:07:40.088Z,60118.45
2018-08-04T18:10:08.381Z,60117.43
2018-08-04T18:12:36.688Z,60118.45
2018-08-04T18:15:06.211Z,60135.72
2018-08-04T18:17:34.491Z,60107.27
2018-08-04T18:20:02.744Z,60136.73
2018-08-04T18:22:31.017Z,60136.73
2018-08-04T18:24:59.254Z,60141.82
2018-08-04T18:27:27.515Z,60131.66
2018-08-04T18:29:55.798Z,60123.53
2018-08-04T18:32:24.042Z,60130.64
2018-08-04T18:34:52.454Z,60144.87
2018-08-04T18:37:20.741Z,60132.67
2018-08-04T18:39:48.972Z,60117.43
2018-08-04T18:42:17.247Z,60148.93
2018-08-04T18:44:45.548Z,60136.73
2018-08-04T18:47:13.789Z,60144.87
2018-08-04T18:49:41.990Z,60149.95
2018-08-04T18:52:10.311Z,60142.83
2018-08-04T18:54:38.558Z,60156.04
2018-08-04T18:57:06.798Z,60156.04
2018-08-04T18:59:35.657Z,60158.07
2018-08-04T19:02:03.934Z,60155.03
2018-08-04T19:04:32.166Z,60154.01
2018-08-04T19:07:00.482Z,60146.90
2018-08-04T19:09:28.848Z,60155.03
2018-08-04T19:11:57.075Z,60144.87
2018-08-04T19:14:25.316Z,60167.22
2018-08-04T19:16:53.550Z,60157.06
2018-08-04T19:19:21.848Z,60169.25
2018-08-04T19:21:50.175Z,60149.95
2018-08-04T19:24:18.458Z,60184.49
2018-08-04T19:26:46.672Z,60169.25
2018-08-04T19:29:14.964Z,60147.91
2018-08-04T19:31:43.278Z,60176.37
2018-08-04T19:34:11.534Z,60171.29
2018-08-04T19:36:39.754Z,60169.25
2018-08-04T19:39:09.326Z,60177.38
2018-08-04T19:41:37.618Z,60172.30
2018-08-04T19:44:06.198Z,60174.33
2018-08-04T19:46:34.486Z,60186.52
2018-08-04T19:49:02.702Z,60167.22
2018-08-04T19:51:31.143Z,60176.37
2018-08-04T19:53:59.369Z,60192.62
2018-08-04T19:56:27.683Z,60173.32
2018-08-04T19:58:55.962Z,60181.45
2018-08-04T20:01:24.249Z,60184.49
2018-08-04T20:03:52.502Z,60183.48
2018-08-04T20:06:20.730Z,60198.72
2018-08-04T20:08:48.985Z,60188.56
2018-08-04T20:11:17.303Z,60206.85
2018-08-04T20:13:45.643Z,60200.75
2018-08-04T20:16:13.917Z,60194.66
2018-08-04T20:18:42.106Z,60200.75
2018-08-04T20:21:10.366Z,60211.93
2018-08-04T20:23:38.562Z,60183.48
2018-08-04T20:26:06.783Z,60185.51
2018-08-04T20:28:34.978Z,60185.51
2018-08-04T20:31:03.207Z,60210.91
2018-08-04T20:33:31.482Z,60203.80
2018-08-04T20:35:59.694Z,60200.75
2018-08-04T20:38:27.863Z,60211.93
2018-08-04T20:40:56.038Z,60191.61
2018-08-04T20:43:24.246Z,60213.96
2018-08-04T20:45:52.423Z,60193.64
2018-08-04T20:48:20.601Z,60211.93
2018-08-04T20:50:48.819Z,60198.72
2018-08-04T20:53:16.990Z,60198.72
2018-08-04T20:55:45.190Z,60209.90
2018-08-04T20:58:13.424Z,60221.07
2018-08-04T21:00:42.574Z,60211.93
2018-08-04T21:03:12.547Z,60233.27
2018-08-04T21:05:40.850Z,60225.14
2018-08-04T21:08:09.022Z,60214.98
2018-08-04T21:10:37.199Z,60235.30
2018-08-04T21:13:05.386Z,60232.25
2018-08-04T21:15:33.590Z,60203.80
2018-08-04T21:18:01.871Z,60211.93
2018-08-04T21:20:30.047Z,60234.29
2018-08-04T21:22:58.235Z,60227.17
2018-08-04T21:25:26.416Z,60194.66
2018-08-04T21:27:54.632Z,60228.19
2018-08-04T21:30:22.806Z,60215.99
2018-08-04T21:32:50.994Z,60214.98
2018-08-04T21:35:19.171Z,60212.95
2018-08-04T21:37:47.351Z,60220.06
2018-08-04T21:40:15.531Z,60240.38
2018-08-04T21:42:43.777Z,60240.38
2018-08-04T21:45:11.954Z,60217.01
2018-08-04T21:47:40.219Z,60214.98
2018-08-04T21:50:08.407Z,60245.46
2018-08-04T21:52:36.595Z,60244.45
2018-08-04T21:55:04.875Z,60234.29
2018-08-04T21:57:33.277Z,60219.04
2018-08-04T22:00:01.472Z,60222.09
2018-08-04T22:02:29.669Z,60238.35
2018-08-04T22:04:57.873Z,60228.19
2018-08-04T22:07:47.403Z,60229.20
2018-08-04T22:10:15.985Z,60219.04
2018-08-04T22:12:44.268Z,60242.41
2018-08-04T22:15:13.662Z,60222.09
2018-08-04T22:17:41.902Z,60240.38
2018-08-04T22:20:11.967Z,60223.11
2018-08-04T22:22:40.544Z,60241.40
2018-08-04T22:25:10.875Z,60251.56
2018-08-04T22:27:39.419Z,60234.29
2018-08-04T22:30:08.967Z,60255.63
2018-08-04T22:32:37.142Z,60268.83
2018-08-04T22:35:05.819Z,60240.38
2018-08-04T22:37:34.035Z,60232.25
2018-08-04T22:40:02.482Z,60245.46
2018-08-04T22:42:30.662Z,60245.46
2018-08-04T22:45:03.439Z,60247.49
2018-08-04T22:47:31.607Z,60244.45
2018-08-04T22:49:59.805Z,60239.36
2018-08-04T22:52:27.978Z,60259.69
2018-08-04T22:54:56.158Z,60246.48
2018-08-04T22:57:24.330Z,60242.41
2018-08-04T22:59:52.504Z,60259.69
2018-08-04T23:02:20.675Z,60234.29
2018-08-04T23:04:48.881Z,60252.57
2018-08-04T23:07:17.078Z,60241.40
2018-08-04T23:09:45.270Z,60267.82
2018-08-04T23:12:13.466Z,60240.38
2018-08-04T23:14:41.652Z,60251.56
2018-08-04T23:17:09.837Z,60249.53
2018-08-04T23:19:38.027Z,60259.69
2018-08-04T23:22:06.263Z,60253.59
2018-08-04T23:24:34.446Z,60266.80
2018-08-04T23:27:02.629Z,60247.49
2018-08-04T23:29:30.814Z,60261.72
2018-08-04T23:31:59.003Z,60262.74
2018-08-04T23:34:27.180Z,60261.72
2018-08-04T23:36:55.357Z,60263.75
2018-08-04T23:39:23.521Z,60257.66
2018-08-04T23:41:51.697Z,60236.32
2018-08-04T23:44:19.885Z,60270.87
2018-08-04T23:46:48.068Z,60257.66
2018-08-04T23:49:16.242Z,60249.53
2018-08-04T23:51:44.434Z,60267.82
2018-08-04T23:54:12.626Z,60253.59
2018-08-04T23:56:40.846Z,60257.66
2018-08-04T23:59:09.028Z,60265.79
